sensor_id;sensor_type;location;lat;lon;timestamp;P1;durP1;ratioP1;P2;durP2;ratioP2
25163;SDS011;13440;50.860;13.662;2022-08-11T00:00:03;3.72;;;3.05;;
25163;SDS011;13440;50.860;13.662;2022-08-11T00:02:38;5.88;;;2.90;;
25163;SDS011;13440;50.860;13.662;2022-08-11T00:05:05;4.85;;;3.22;;
25163;SDS011;13440;50.860;13.662;2022-08-11T00:07:32;4.28;;;3.20;;
25163;SDS011;13440;50.860;13.662;2022-08-11T00:09:57;8.77;;;3.40;;
25163;SDS011;13440;50.860;13.662;2022-08-11T00:12:23;4.20;;;3.30;;
25163;SDS011;13440;50.860;13.662;2022-08-11T00:14:58;4.68;;;3.38;;
25163;SDS011;13440;50.860;13.662;2022-08-11T00:17:28;5.53;;;2.92;;
25163;SDS011;13440;50.860;13.662;2022-08-11T00:19:58;4.20;;;3.38;;
25163;SDS011;13440;50.860;13.662;2022-08-11T00:22:24;5.50;;;3.45;;
25163;SDS011;13440;50.860;13.662;2022-08-11T00:24:51;5.50;;;3.42;;
25163;SDS011;13440;50.860;13.662;2022-08-11T00:27:16;3.92;;;3.50;;
25163;SDS011;13440;50.860;13.662;2022-08-11T00:29:51;6.43;;;3.17;;
25163;SDS011;13440;50.860;13.662;2022-08-11T00:34:42;6.55;;;3.72;;
25163;SDS011;13440;50.860;13.662;2022-08-11T00:37:09;4.38;;;3.60;;
25163;SDS011;13440;50.860;13.662;2022-08-11T00:39:41;5.32;;;3.40;;
25163;SDS011;13440;50.860;13.662;2022-08-11T00:42:12;6.80;;;3.42;;
25163;SDS011;13440;50.860;13.662;2022-08-11T00:47:28;5.63;;;3.28;;
25163;SDS011;13440;50.860;13.662;2022-08-11T01:02:45;4.15;;;3.17;;
25163;SDS011;13440;50.860;13.662;2022-08-11T01:20:47;4.72;;;3.50;;
25163;SDS011;13440;50.860;13.662;2022-08-11T01:26:21;7.53;;;3.60;;
25163;SDS011;13440;50.860;13.662;2022-08-11T01:42:33;3.88;;;3.50;;
25163;SDS011;13440;50.860;13.662;2022-08-11T01:45:45;5.43;;;3.63;;
25163;SDS011;13440;50.860;13.662;2022-08-11T01:51:02;3.92;;;3.33;;
25163;SDS011;13440;50.860;13.662;2022-08-11T02:03:54;5.32;;;3.92;;
25163;SDS011;13440;50.860;13.662;2022-08-11T02:11:49;5.65;;;4.40;;
25163;SDS011;13440;50.860;13.662;2022-08-11T02:19:25;5.45;;;3.90;;
25163;SDS011;13440;50.860;13.662;2022-08-11T02:22:19;6.60;;;4.28;;
25163;SDS011;13440;50.860;13.662;2022-08-11T02:25:52;6.30;;;3.92;;
25163;SDS011;13440;50.860;13.662;2022-08-11T02:27:54;5.03;;;4.05;;
25163;SDS011;13440;50.860;13.662;2022-08-11T02:30:23;5.43;;;4.13;;
25163;SDS011;13440;50.860;13.662;2022-08-11T02:38:25;4.80;;;3.72;;
25163;SDS011;13440;50.860;13.662;2022-08-11T02:44:58;4.57;;;3.83;;
25163;SDS011;13440;50.860;13.662;2022-08-11T02:47:08;4.47;;;3.80;;
25163;SDS011;13440;50.860;13.662;2022-08-11T02:52:28;4.65;;;3.63;;
25163;SDS011;13440;50.860;13.662;2022-08-11T02:57:27;5.05;;;3.55;;
25163;SDS011;13440;50.860;13.662;2022-08-11T03:00:08;4.78;;;3.65;;
25163;SDS011;13440;50.860;13.662;2022-08-11T03:05:23;5.53;;;3.78;;
25163;SDS011;13440;50.860;13.662;2022-08-11T03:10:46;4.32;;;3.88;;
25163;SDS011;13440;50.860;13.662;2022-08-11T03:13:34;6.78;;;4.38;;
25163;SDS011;13440;50.860;13.662;2022-08-11T03:16:23;7.43;;;3.97;;
25163;SDS011;13440;50.860;13.662;2022-08-11T03:19:25;7.90;;;4.10;;
25163;SDS011;13440;50.860;13.662;2022-08-11T03:24:53;9.27;;;4.03;;
25163;SDS011;13440;50.860;13.662;2022-08-11T03:30:00;6.78;;;4.00;;
25163;SDS011;13440;50.860;13.662;2022-08-11T03:32:29;8.48;;;3.88;;
25163;SDS011;13440;50.860;13.662;2022-08-11T03:34:57;8.60;;;4.45;;
25163;SDS011;13440;50.860;13.662;2022-08-11T03:37:28;5.85;;;4.40;;
25163;SDS011;13440;50.860;13.662;2022-08-11T03:46:02;4.57;;;3.93;;
25163;SDS011;13440;50.860;13.662;2022-08-11T03:49:13;4.30;;;3.90;;
25163;SDS011;13440;50.860;13.662;2022-08-11T03:56:33;10.75;;;4.30;;
25163;SDS011;13440;50.860;13.662;2022-08-11T04:04:43;6.07;;;3.70;;
25163;SDS011;13440;50.860;13.662;2022-08-11T04:08:14;6.63;;;4.35;;
25163;SDS011;13440;50.860;13.662;2022-08-11T04:12:45;5.07;;;3.90;;
25163;SDS011;13440;50.860;13.662;2022-08-11T04:20:52;5.38;;;3.78;;
25163;SDS011;13440;50.860;13.662;2022-08-11T04:44:10;4.47;;;3.40;;
25163;SDS011;13440;50.860;13.662;2022-08-11T04:52:06;4.50;;;3.42;;
25163;SDS011;13440;50.860;13.662;2022-08-11T04:57:58;6.00;;;3.53;;
25163;SDS011;13440;50.860;13.662;2022-08-11T05:17:08;4.25;;;2.85;;
25163;SDS011;13440;50.860;13.662;2022-08-11T05:19:53;3.88;;;3.45;;
25163;SDS011;13440;50.860;13.662;2022-08-11T05:22:37;5.03;;;3.40;;
25163;SDS011;13440;50.860;13.662;2022-08-11T05:25:26;8.88;;;6.38;;
25163;SDS011;13440;50.860;13.662;2022-08-11T05:28:15;4.35;;;3.30;;
25163;SDS011;13440;50.860;13.662;2022-08-11T05:31:13;4.85;;;3.25;;
25163;SDS011;13440;50.860;13.662;2022-08-11T05:33:58;4.10;;;3.00;;
25163;SDS011;13440;50.860;13.662;2022-08-11T05:36:48;8.00;;;6.03;;
25163;SDS011;13440;50.860;13.662;2022-08-11T05:39:15;7.35;;;3.10;;
25163;SDS011;13440;50.860;13.662;2022-08-11T05:42:00;6.72;;;3.13;;
25163;SDS011;13440;50.860;13.662;2022-08-11T05:44:45;3.05;;;2.78;;
25163;SDS011;13440;50.860;13.662;2022-08-11T05:47:29;3.35;;;2.72;;
25163;SDS011;13440;50.860;13.662;2022-08-11T05:50:14;4.35;;;2.88;;
25163;SDS011;13440;50.860;13.662;2022-08-11T05:53:00;5.72;;;3.22;;
25163;SDS011;13440;50.860;13.662;2022-08-11T05:55:45;4.00;;;2.80;;
25163;SDS011;13440;50.860;13.662;2022-08-11T06:00:54;4.37;;;2.60;;
25163;SDS011;13440;50.860;13.662;2022-08-11T06:03:27;6.15;;;2.80;;
25163;SDS011;13440;50.860;13.662;2022-08-11T06:05:53;4.15;;;2.78;;
25163;SDS011;13440;50.860;13.662;2022-08-11T06:08:25;5.65;;;2.80;;
25163;SDS011;13440;50.860;13.662;2022-08-11T06:10:51;3.85;;;2.50;;
25163;SDS011;13440;50.860;13.662;2022-08-11T06:13:23;4.80;;;2.58;;
25163;SDS011;13440;50.860;13.662;2022-08-11T06:15:49;3.95;;;2.45;;
25163;SDS011;13440;50.860;13.662;2022-08-11T06:18:16;5.68;;;3.42;;
25163;SDS011;13440;50.860;13.662;2022-08-11T06:20:45;2.97;;;2.42;;
25163;SDS011;13440;50.860;13.662;2022-08-11T06:23:11;2.67;;;2.47;;
25163;SDS011;13440;50.860;13.662;2022-08-11T06:25:39;7.20;;;2.60;;
25163;SDS011;13440;50.860;13.662;2022-08-11T06:28:05;4.15;;;2.50;;
25163;SDS011;13440;50.860;13.662;2022-08-11T06:30:41;4.07;;;2.55;;
25163;SDS011;13440;50.860;13.662;2022-08-11T06:41:06;4.65;;;2.20;;
25163;SDS011;13440;50.860;13.662;2022-08-11T06:46:40;2.72;;;1.90;;
25163;SDS011;13440;50.860;13.662;2022-08-11T06:49:06;4.32;;;2.25;;
25163;SDS011;13440;50.860;13.662;2022-08-11T06:51:50;3.50;;;2.20;;
25163;SDS011;13440;50.860;13.662;2022-08-11T06:54:16;3.85;;;2.28;;
25163;SDS011;13440;50.860;13.662;2022-08-11T06:56:41;5.57;;;2.65;;
25163;SDS011;13440;50.860;13.662;2022-08-11T07:13:37;4.93;;;3.45;;
25163;SDS011;13440;50.860;13.662;2022-08-11T07:16:30;4.85;;;2.55;;
25163;SDS011;13440;50.860;13.662;2022-08-11T07:19:02;5.95;;;4.15;;
25163;SDS011;13440;50.860;13.662;2022-08-11T07:21:46;6.78;;;2.30;;
25163;SDS011;13440;50.860;13.662;2022-08-11T07:24:34;3.50;;;2.25;;
25163;SDS011;13440;50.860;13.662;2022-08-11T07:27:19;4.65;;;2.30;;
25163;SDS011;13440;50.860;13.662;2022-08-11T07:30:08;3.35;;;2.20;;
25163;SDS011;13440;50.860;13.662;2022-08-11T07:32:36;3.80;;;2.75;;
25163;SDS011;13440;50.860;13.662;2022-08-11T07:35:08;3.50;;;2.47;;
25163;SDS011;13440;50.860;13.662;2022-08-11T07:37:33;3.58;;;2.03;;
25163;SDS011;13440;50.860;13.662;2022-08-11T07:39:59;4.10;;;2.67;;
25163;SDS011;13440;50.860;13.662;2022-08-11T07:42:27;6.32;;;2.40;;
25163;SDS011;13440;50.860;13.662;2022-08-11T07:44:54;4.22;;;2.38;;
25163;SDS011;13440;50.860;13.662;2022-08-11T07:47:38;3.75;;;2.15;;
25163;SDS011;13440;50.860;13.662;2022-08-11T07:50:22;3.92;;;2.20;;
25163;SDS011;13440;50.860;13.662;2022-08-11T07:53:06;7.93;;;2.00;;
25163;SDS011;13440;50.860;13.662;2022-08-11T07:55:32;3.13;;;2.53;;
25163;SDS011;13440;50.860;13.662;2022-08-11T07:57:58;3.10;;;2.30;;
25163;SDS011;13440;50.860;13.662;2022-08-11T08:00:50;3.75;;;2.17;;
25163;SDS011;13440;50.860;13.662;2022-08-11T08:03:34;6.68;;;2.72;;
25163;SDS011;13440;50.860;13.662;2022-08-11T08:06:22;3.28;;;2.55;;
25163;SDS011;13440;50.860;13.662;2022-08-11T08:11:51;10.03;;;2.20;;
25163;SDS011;13440;50.860;13.662;2022-08-11T08:14:35;4.78;;;2.33;;
25163;SDS011;13440;50.860;13.662;2022-08-11T08:17:20;5.45;;;2.38;;
25163;SDS011;13440;50.860;13.662;2022-08-11T08:20:04;6.75;;;2.15;;
25163;SDS011;13440;50.860;13.662;2022-08-11T08:22:32;4.82;;;2.50;;
25163;SDS011;13440;50.860;13.662;2022-08-11T08:24:58;2.65;;;2.10;;
25163;SDS011;13440;50.860;13.662;2022-08-11T08:27:24;2.90;;;2.30;;
25163;SDS011;13440;50.860;13.662;2022-08-11T08:29:50;5.30;;;2.35;;
25163;SDS011;13440;50.860;13.662;2022-08-11T08:32:36;4.15;;;2.08;;
25163;SDS011;13440;50.860;13.662;2022-08-11T08:35:02;7.82;;;2.92;;
25163;SDS011;13440;50.860;13.662;2022-08-11T08:37:28;5.32;;;2.38;;
25163;SDS011;13440;50.860;13.662;2022-08-11T08:39:54;4.65;;;2.30;;
25163;SDS011;13440;50.860;13.662;2022-08-11T08:42:26;5.60;;;2.15;;
25163;SDS011;13440;50.860;13.662;2022-08-11T08:47:23;3.92;;;2.28;;
25163;SDS011;13440;50.860;13.662;2022-08-11T08:49:51;4.82;;;2.67;;
25163;SDS011;13440;50.860;13.662;2022-08-11T08:52:21;3.58;;;2.22;;
25163;SDS011;13440;50.860;13.662;2022-08-11T08:54:51;7.05;;;2.80;;
25163;SDS011;13440;50.860;13.662;2022-08-11T08:57:18;2.97;;;2.50;;
25163;SDS011;13440;50.860;13.662;2022-08-11T08:59:46;4.65;;;2.20;;
25163;SDS011;13440;50.860;13.662;2022-08-11T09:02:12;7.22;;;2.30;;
25163;SDS011;13440;50.860;13.662;2022-08-11T09:04:38;3.28;;;2.22;;
25163;SDS011;13440;50.860;13.662;2022-08-11T09:07:11;3.45;;;2.33;;
25163;SDS011;13440;50.860;13.662;2022-08-11T09:09:40;7.18;;;2.60;;
25163;SDS011;13440;50.860;13.662;2022-08-11T09:12:06;2.42;;;2.20;;
25163;SDS011;13440;50.860;13.662;2022-08-11T09:14:33;6.22;;;2.67;;
25163;SDS011;13440;50.860;13.662;2022-08-11T09:17:18;6.78;;;2.60;;
25163;SDS011;13440;50.860;13.662;2022-08-11T09:19:45;3.33;;;2.60;;
25163;SDS011;13440;50.860;13.662;2022-08-11T09:22:10;2.95;;;2.50;;
25163;SDS011;13440;50.860;13.662;2022-08-11T09:27:38;4.93;;;2.40;;
25163;SDS011;13440;50.860;13.662;2022-08-11T09:30:05;5.30;;;2.40;;
25163;SDS011;13440;50.860;13.662;2022-08-11T09:32:30;2.58;;;2.30;;
25163;SDS011;13440;50.860;13.662;2022-08-11T09:34:57;6.70;;;2.50;;
25163;SDS011;13440;50.860;13.662;2022-08-11T09:37:25;7.15;;;2.40;;
25163;SDS011;13440;50.860;13.662;2022-08-11T09:40:09;5.28;;;3.42;;
25163;SDS011;13440;50.860;13.662;2022-08-11T09:42:54;4.72;;;2.78;;
25163;SDS011;13440;50.860;13.662;2022-08-11T09:45:38;4.60;;;2.40;;
25163;SDS011;13440;50.860;13.662;2022-08-11T09:48:04;7.00;;;2.58;;
25163;SDS011;13440;50.860;13.662;2022-08-11T09:50:33;6.10;;;2.90;;
25163;SDS011;13440;50.860;13.662;2022-08-11T09:52:59;3.58;;;2.28;;
25163;SDS011;13440;50.860;13.662;2022-08-11T09:55:25;2.60;;;2.15;;
25163;SDS011;13440;50.860;13.662;2022-08-11T09:57:50;9.68;;;2.50;;
25163;SDS011;13440;50.860;13.662;2022-08-11T10:00:35;5.90;;;2.35;;
25163;SDS011;13440;50.860;13.662;2022-08-11T10:03:02;6.40;;;2.95;;
25163;SDS011;13440;50.860;13.662;2022-08-11T10:05:31;3.80;;;2.50;;
25163;SDS011;13440;50.860;13.662;2022-08-11T10:10:40;4.70;;;2.30;;
25163;SDS011;13440;50.860;13.662;2022-08-11T10:13:06;4.15;;;2.20;;
25163;SDS011;13440;50.860;13.662;2022-08-11T10:15:32;2.67;;;2.22;;
25163;SDS011;13440;50.860;13.662;2022-08-11T10:18:07;4.78;;;2.13;;
25163;SDS011;13440;50.860;13.662;2022-08-11T10:20:57;5.07;;;2.33;;
25163;SDS011;13440;50.860;13.662;2022-08-11T10:23:23;3.80;;;2.03;;
25163;SDS011;13440;50.860;13.662;2022-08-11T10:26:07;2.97;;;2.20;;
25163;SDS011;13440;50.860;13.662;2022-08-11T10:31:18;4.20;;;2.20;;
25163;SDS011;13440;50.860;13.662;2022-08-11T10:34:02;5.60;;;2.10;;
25163;SDS011;13440;50.860;13.662;2022-08-11T10:36:32;4.20;;;2.30;;
25163;SDS011;13440;50.860;13.662;2022-08-11T10:38:58;10.30;;;2.15;;
25163;SDS011;13440;50.860;13.662;2022-08-11T10:41:24;2.95;;;2.28;;
25163;SDS011;13440;50.860;13.662;2022-08-11T10:44:08;4.28;;;2.20;;
25163;SDS011;13440;50.860;13.662;2022-08-11T10:46:34;4.50;;;2.33;;
25163;SDS011;13440;50.860;13.662;2022-08-11T10:49:19;5.95;;;2.45;;
25163;SDS011;13440;50.860;13.662;2022-08-11T10:51:45;2.50;;;2.30;;
25163;SDS011;13440;50.860;13.662;2022-08-11T10:57:13;4.78;;;2.20;;
25163;SDS011;13440;50.860;13.662;2022-08-11T10:59:57;5.40;;;1.98;;
25163;SDS011;13440;50.860;13.662;2022-08-11T11:02:23;4.43;;;2.15;;
25163;SDS011;13440;50.860;13.662;2022-08-11T11:07:17;5.22;;;2.05;;
25163;SDS011;13440;50.860;13.662;2022-08-11T11:09:55;5.63;;;2.13;;
25163;SDS011;13440;50.860;13.662;2022-08-11T11:12:26;4.35;;;2.00;;
25163;SDS011;13440;50.860;13.662;2022-08-11T11:15:12;5.40;;;2.13;;
25163;SDS011;13440;50.860;13.662;2022-08-11T11:18:01;4.72;;;2.10;;
25163;SDS011;13440;50.860;13.662;2022-08-11T11:22:55;5.60;;;1.83;;
25163;SDS011;13440;50.860;13.662;2022-08-11T11:25:24;4.82;;;1.92;;
25163;SDS011;13440;50.860;13.662;2022-08-11T11:28:10;2.22;;;1.98;;
25163;SDS011;13440;50.860;13.662;2022-08-11T11:30:45;1.52;;;1.33;;
25163;SDS011;13440;50.860;13.662;2022-08-11T11:33:20;5.20;;;1.88;;
25163;SDS011;13440;50.860;13.662;2022-08-11T11:35:57;5.60;;;1.90;;
25163;SDS011;13440;50.860;13.662;2022-08-11T11:38:27;4.68;;;1.80;;
25163;SDS011;13440;50.860;13.662;2022-08-11T11:40:53;2.97;;;1.45;;
25163;SDS011;13440;50.860;13.662;2022-08-11T11:43:37;5.07;;;1.52;;
25163;SDS011;13440;50.860;13.662;2022-08-11T11:46:03;3.75;;;1.77;;
25163;SDS011;13440;50.860;13.662;2022-08-11T11:48:29;3.15;;;1.77;;
25163;SDS011;13440;50.860;13.662;2022-08-11T11:50:55;6.80;;;1.73;;
25163;SDS011;13440;50.860;13.662;2022-08-11T11:53:20;2.97;;;1.60;;
25163;SDS011;13440;50.860;13.662;2022-08-11T11:55:46;3.08;;;1.85;;
25163;SDS011;13440;50.860;13.662;2022-08-11T11:58:12;3.45;;;1.52;;
25163;SDS011;13440;50.860;13.662;2022-08-11T12:00:56;2.28;;;1.40;;
25163;SDS011;13440;50.860;13.662;2022-08-11T12:03:40;7.43;;;2.15;;
25163;SDS011;13440;50.860;13.662;2022-08-11T12:06:07;5.70;;;3.15;;
25163;SDS011;13440;50.860;13.662;2022-08-11T12:08:33;3.58;;;1.70;;
25163;SDS011;13440;50.860;13.662;2022-08-11T12:11:01;1.73;;;1.50;;
25163;SDS011;13440;50.860;13.662;2022-08-11T12:13:45;3.65;;;1.40;;
25163;SDS011;13440;50.860;13.662;2022-08-11T12:16:12;3.25;;;1.50;;
25163;SDS011;13440;50.860;13.662;2022-08-11T12:18:38;2.65;;;1.42;;
25163;SDS011;13440;50.860;13.662;2022-08-11T12:21:04;1.88;;;1.55;;
25163;SDS011;13440;50.860;13.662;2022-08-11T12:23:31;3.08;;;1.30;;
25163;SDS011;13440;50.860;13.662;2022-08-11T12:26:15;4.25;;;1.23;;
25163;SDS011;13440;50.860;13.662;2022-08-11T12:28:59;6.18;;;1.48;;
25163;SDS011;13440;50.860;13.662;2022-08-11T12:31:27;3.15;;;1.40;;
25163;SDS011;13440;50.860;13.662;2022-08-11T12:33:52;4.22;;;1.65;;
25163;SDS011;13440;50.860;13.662;2022-08-11T12:36:20;2.55;;;1.58;;
25163;SDS011;13440;50.860;13.662;2022-08-11T12:38:46;1.38;;;1.27;;
25163;SDS011;13440;50.860;13.662;2022-08-11T12:41:12;1.90;;;1.20;;
25163;SDS011;13440;50.860;13.662;2022-08-11T12:43:57;2.13;;;1.20;;
25163;SDS011;13440;50.860;13.662;2022-08-11T12:46:42;8.18;;;1.42;;
25163;SDS011;13440;50.860;13.662;2022-08-11T12:49:12;3.72;;;1.45;;
25163;SDS011;13440;50.860;13.662;2022-08-11T12:51:57;2.75;;;1.38;;
25163;SDS011;13440;50.860;13.662;2022-08-11T12:54:27;4.00;;;1.40;;
25163;SDS011;13440;50.860;13.662;2022-08-11T12:56:57;3.83;;;1.30;;
25163;SDS011;13440;50.860;13.662;2022-08-11T12:59:42;3.03;;;1.40;;
25163;SDS011;13440;50.860;13.662;2022-08-11T13:02:26;4.65;;;1.52;;
25163;SDS011;13440;50.860;13.662;2022-08-11T13:05:11;2.75;;;1.60;;
25163;SDS011;13440;50.860;13.662;2022-08-11T13:07:37;2.80;;;1.20;;
25163;SDS011;13440;50.860;13.662;2022-08-11T13:10:05;3.03;;;1.40;;
25163;SDS011;13440;50.860;13.662;2022-08-11T13:12:31;1.25;;;1.15;;
25163;SDS011;13440;50.860;13.662;2022-08-11T13:15:16;5.28;;;1.17;;
25163;SDS011;13440;50.860;13.662;2022-08-11T13:17:42;3.28;;;1.20;;
25163;SDS011;13440;50.860;13.662;2022-08-11T13:20:08;2.55;;;1.20;;
25163;SDS011;13440;50.860;13.662;2022-08-11T13:22:34;3.90;;;2.03;;
25163;SDS011;13440;50.860;13.662;2022-08-11T13:25:01;4.47;;;1.50;;
25163;SDS011;13440;50.860;13.662;2022-08-11T13:27:27;3.90;;;1.38;;
25163;SDS011;13440;50.860;13.662;2022-08-11T13:29:52;2.30;;;1.20;;
25163;SDS011;13440;50.860;13.662;2022-08-11T13:32:38;4.32;;;1.52;;
25163;SDS011;13440;50.860;13.662;2022-08-11T13:35:04;3.35;;;1.50;;
25163;SDS011;13440;50.860;13.662;2022-08-11T13:37:29;2.88;;;1.38;;
25163;SDS011;13440;50.860;13.662;2022-08-11T13:39:55;3.10;;;1.20;;
25163;SDS011;13440;50.860;13.662;2022-08-11T13:42:22;1.77;;;1.30;;
25163;SDS011;13440;50.860;13.662;2022-08-11T13:44:48;2.03;;;1.30;;
25163;SDS011;13440;50.860;13.662;2022-08-11T13:47:14;3.65;;;1.48;;
25163;SDS011;13440;50.860;13.662;2022-08-11T13:49:40;2.92;;;1.30;;
25163;SDS011;13440;50.860;13.662;2022-08-11T13:52:08;6.20;;;1.70;;
25163;SDS011;13440;50.860;13.662;2022-08-11T13:54:36;3.05;;;1.27;;
25163;SDS011;13440;50.860;13.662;2022-08-11T13:57:07;2.95;;;1.50;;
25163;SDS011;13440;50.860;13.662;2022-08-11T13:59:32;2.05;;;1.55;;
25163;SDS011;13440;50.860;13.662;2022-08-11T14:01:59;4.35;;;1.55;;
25163;SDS011;13440;50.860;13.662;2022-08-11T14:06:53;4.78;;;1.85;;
25163;SDS011;13440;50.860;13.662;2022-08-11T14:09:24;4.32;;;1.60;;
25163;SDS011;13440;50.860;13.662;2022-08-11T14:11:50;3.97;;;1.60;;
25163;SDS011;13440;50.860;13.662;2022-08-11T14:14:35;2.15;;;1.70;;
25163;SDS011;13440;50.860;13.662;2022-08-11T14:17:04;2.55;;;1.70;;
25163;SDS011;13440;50.860;13.662;2022-08-11T14:19:34;4.57;;;1.70;;
25163;SDS011;13440;50.860;13.662;2022-08-11T14:22:00;4.22;;;1.60;;
25163;SDS011;13440;50.860;13.662;2022-08-11T14:24:34;1.77;;;1.60;;
25163;SDS011;13440;50.860;13.662;2022-08-11T14:27:00;5.25;;;1.90;;
25163;SDS011;13440;50.860;13.662;2022-08-11T14:29:26;3.83;;;2.05;;
25163;SDS011;13440;50.860;13.662;2022-08-11T14:31:53;2.30;;;1.45;;
25163;SDS011;13440;50.860;13.662;2022-08-11T14:34:21;3.42;;;1.58;;
25163;SDS011;13440;50.860;13.662;2022-08-11T14:36:48;4.00;;;1.80;;
25163;SDS011;13440;50.860;13.662;2022-08-11T14:39:17;3.92;;;1.42;;
25163;SDS011;13440;50.860;13.662;2022-08-11T14:41:46;1.83;;;1.73;;
25163;SDS011;13440;50.860;13.662;2022-08-11T14:44:31;4.07;;;1.70;;
25163;SDS011;13440;50.860;13.662;2022-08-11T14:47:16;9.40;;;6.35;;
25163;SDS011;13440;50.860;13.662;2022-08-11T14:49:42;1.70;;;1.50;;
25163;SDS011;13440;50.860;13.662;2022-08-11T14:52:08;1.35;;;1.25;;
25163;SDS011;13440;50.860;13.662;2022-08-11T14:54:34;1.92;;;1.50;;
25163;SDS011;13440;50.860;13.662;2022-08-11T14:59:45;5.17;;;1.53;;
25163;SDS011;13440;50.860;13.662;2022-08-11T15:02:12;2.30;;;1.75;;
25163;SDS011;13440;50.860;13.662;2022-08-11T15:07:22;4.33;;;1.90;;
25163;SDS011;13440;50.860;13.662;2022-08-11T15:09:54;5.82;;;3.50;;
25163;SDS011;13440;50.860;13.662;2022-08-11T15:12:20;2.75;;;1.90;;
25163;SDS011;13440;50.860;13.662;2022-08-11T15:14:46;3.75;;;1.55;;
25163;SDS011;13440;50.860;13.662;2022-08-11T15:17:30;2.30;;;1.50;;
25163;SDS011;13440;50.860;13.662;2022-08-11T15:19:59;3.17;;;1.52;;
25163;SDS011;13440;50.860;13.662;2022-08-11T15:22:44;3.17;;;1.77;;
25163;SDS011;13440;50.860;13.662;2022-08-11T15:25:29;7.15;;;1.73;;
25163;SDS011;13440;50.860;13.662;2022-08-11T15:27:54;5.28;;;1.63;;
25163;SDS011;13440;50.860;13.662;2022-08-11T15:33:23;5.57;;;1.90;;
25163;SDS011;13440;50.860;13.662;2022-08-11T15:36:08;1.60;;;1.50;;
25163;SDS011;13440;50.860;13.662;2022-08-11T15:39:18;3.78;;;1.60;;
25163;SDS011;13440;50.860;13.662;2022-08-11T15:41:45;4.90;;;1.80;;
25163;SDS011;13440;50.860;13.662;2022-08-11T15:44:32;4.50;;;1.88;;
25163;SDS011;13440;50.860;13.662;2022-08-11T15:47:15;2.17;;;1.77;;
25163;SDS011;13440;50.860;13.662;2022-08-11T15:49:43;2.95;;;1.55;;
25163;SDS011;13440;50.860;13.662;2022-08-11T15:52:09;1.95;;;1.60;;
25163;SDS011;13440;50.860;13.662;2022-08-11T15:54:37;2.03;;;1.70;;
25163;SDS011;13440;50.860;13.662;2022-08-11T15:57:04;2.17;;;1.98;;
25163;SDS011;13440;50.860;13.662;2022-08-11T15:59:33;2.78;;;1.70;;
25163;SDS011;13440;50.860;13.662;2022-08-11T16:02:20;6.75;;;1.92;;
25163;SDS011;13440;50.860;13.662;2022-08-11T16:05:06;4.65;;;1.83;;
25163;SDS011;13440;50.860;13.662;2022-08-11T16:07:32;2.63;;;1.52;;
25163;SDS011;13440;50.860;13.662;2022-08-11T16:10:06;4.25;;;1.75;;
25163;SDS011;13440;50.860;13.662;2022-08-11T16:12:36;2.50;;;1.80;;
25163;SDS011;13440;50.860;13.662;2022-08-11T16:15:04;3.85;;;1.80;;
25163;SDS011;13440;50.860;13.662;2022-08-11T16:17:52;4.57;;;1.73;;
25163;SDS011;13440;50.860;13.662;2022-08-11T16:20:20;5.32;;;1.88;;
25163;SDS011;13440;50.860;13.662;2022-08-11T16:22:46;2.47;;;1.70;;
25163;SDS011;13440;50.860;13.662;2022-08-11T16:25:22;8.00;;;1.73;;
25163;SDS011;13440;50.860;13.662;2022-08-11T16:27:55;3.40;;;1.60;;
25163;SDS011;13440;50.860;13.662;2022-08-11T16:30:31;2.90;;;1.80;;
25163;SDS011;13440;50.860;13.662;2022-08-11T16:32:57;3.40;;;1.83;;
25163;SDS011;13440;50.860;13.662;2022-08-11T16:35:24;4.78;;;2.38;;
25163;SDS011;13440;50.860;13.662;2022-08-11T16:38:10;1.55;;;1.40;;
25163;SDS011;13440;50.860;13.662;2022-08-11T16:40:55;3.30;;;1.70;;
25163;SDS011;13440;50.860;13.662;2022-08-11T16:43:24;5.57;;;1.67;;
25163;SDS011;13440;50.860;13.662;2022-08-11T16:46:09;7.03;;;3.22;;
25163;SDS011;13440;50.860;13.662;2022-08-11T16:48:54;1.92;;;1.60;;
25163;SDS011;13440;50.860;13.662;2022-08-11T16:51:20;1.90;;;1.70;;
25163;SDS011;13440;50.860;13.662;2022-08-11T16:53:47;3.08;;;1.75;;
25163;SDS011;13440;50.860;13.662;2022-08-11T16:56:17;3.40;;;2.33;;
25163;SDS011;13440;50.860;13.662;2022-08-11T16:58:43;2.58;;;2.13;;
25163;SDS011;13440;50.860;13.662;2022-08-11T17:01:29;5.20;;;2.03;;
25163;SDS011;13440;50.860;13.662;2022-08-11T17:03:57;2.70;;;1.88;;
25163;SDS011;13440;50.860;13.662;2022-08-11T17:06:43;4.93;;;1.80;;
25163;SDS011;13440;50.860;13.662;2022-08-11T17:09:28;3.58;;;1.70;;
25163;SDS011;13440;50.860;13.662;2022-08-11T17:12:13;4.25;;;1.80;;
25163;SDS011;13440;50.860;13.662;2022-08-11T17:14:59;1.52;;;1.40;;
25163;SDS011;13440;50.860;13.662;2022-08-11T17:17:27;3.63;;;2.80;;
25163;SDS011;13440;50.860;13.662;2022-08-11T17:19:56;5.60;;;1.75;;
25163;SDS011;13440;50.860;13.662;2022-08-11T17:22:22;6.43;;;1.60;;
25163;SDS011;13440;50.860;13.662;2022-08-11T17:25:07;2.28;;;1.30;;
25163;SDS011;13440;50.860;13.662;2022-08-11T17:27:33;2.75;;;1.92;;
25163;SDS011;13440;50.860;13.662;2022-08-11T17:30:00;4.88;;;1.70;;
25163;SDS011;13440;50.860;13.662;2022-08-11T17:32:36;4.28;;;1.65;;
25163;SDS011;13440;50.860;13.662;2022-08-11T17:35:22;3.03;;;1.48;;
25163;SDS011;13440;50.860;13.662;2022-08-11T17:38:04;2.35;;;1.50;;
25163;SDS011;13440;50.860;13.662;2022-08-11T17:40:32;1.40;;;1.30;;
25163;SDS011;13440;50.860;13.662;2022-08-11T17:42:58;4.63;;;1.55;;
25163;SDS011;13440;50.860;13.662;2022-08-11T17:48:30;4.32;;;1.55;;
25163;SDS011;13440;50.860;13.662;2022-08-11T17:50:57;2.42;;;1.40;;
25163;SDS011;13440;50.860;13.662;2022-08-11T17:53:25;6.40;;;1.58;;
25163;SDS011;13440;50.860;13.662;2022-08-11T17:56:10;3.95;;;1.70;;
25163;SDS011;13440;50.860;13.662;2022-08-11T17:58:55;5.82;;;1.70;;
25163;SDS011;13440;50.860;13.662;2022-08-11T18:01:45;6.50;;;2.00;;
25163;SDS011;13440;50.860;13.662;2022-08-11T18:04:12;2.95;;;1.50;;
25163;SDS011;13440;50.860;13.662;2022-08-11T18:06:37;4.00;;;1.67;;
25163;SDS011;13440;50.860;13.662;2022-08-11T18:09:06;2.67;;;1.63;;
25163;SDS011;13440;50.860;13.662;2022-08-11T18:11:50;3.05;;;1.63;;
25163;SDS011;13440;50.860;13.662;2022-08-11T18:17:19;4.22;;;1.73;;
25163;SDS011;13440;50.860;13.662;2022-08-11T18:20:03;3.15;;;1.75;;
25163;SDS011;13440;50.860;13.662;2022-08-11T18:25:32;7.72;;;3.00;;
25163;SDS011;13440;50.860;13.662;2022-08-11T18:28:22;8.75;;;3.28;;
25163;SDS011;13440;50.860;13.662;2022-08-11T18:31:08;5.15;;;2.40;;
25163;SDS011;13440;50.860;13.662;2022-08-11T18:33:55;4.15;;;1.80;;
25163;SDS011;13440;50.860;13.662;2022-08-11T18:36:42;3.67;;;1.75;;
25163;SDS011;13440;50.860;13.662;2022-08-11T18:39:29;3.55;;;2.20;;
25163;SDS011;13440;50.860;13.662;2022-08-11T18:42:15;10.38;;;5.68;;
25163;SDS011;13440;50.860;13.662;2022-08-11T18:45:00;9.52;;;5.75;;
25163;SDS011;13440;50.860;13.662;2022-08-11T18:47:46;4.68;;;2.08;;
25163;SDS011;13440;50.860;13.662;2022-08-11T18:50:31;1.90;;;1.73;;
25163;SDS011;13440;50.860;13.662;2022-08-11T18:53:15;2.45;;;1.88;;
25163;SDS011;13440;50.860;13.662;2022-08-11T18:55:59;4.85;;;2.28;;
25163;SDS011;13440;50.860;13.662;2022-08-11T18:58:43;4.30;;;2.13;;
25163;SDS011;13440;50.860;13.662;2022-08-11T19:04:12;2.85;;;1.42;;
25163;SDS011;13440;50.860;13.662;2022-08-11T19:06:56;4.47;;;1.85;;
25163;SDS011;13440;50.860;13.662;2022-08-11T19:09:42;2.00;;;1.73;;
25163;SDS011;13440;50.860;13.662;2022-08-11T19:12:31;6.35;;;1.90;;
25163;SDS011;13440;50.860;13.662;2022-08-11T19:15:16;4.13;;;2.10;;